Time;durP1;ratioP1;P1;durP2;ratioP2;P2;SDS_P1;SDS_P2;PMS_P1;PMS_P2;Temp;Humidity;BMP_temperature;BMP_pressure;BME280_temperature;BME280_humidity;BME280_pressure;Samples;Min_cycle;Max_cycle;Signal;HPM_P1;HPM_P2
2022/12/25 00:00:26;;;;;;;21.27;10.50;;;;;;;5.28;94.80;98843.31;5053310;28;20090;-81
2022/12/25 00:02:52;;;;;;;23.65;9.73;;;;;;;5.37;95.16;98849.16;5052174;28;20098;-82
2022/12/25 00:05:17;;;;;;;23.63;9.38;;;;;;;5.29;95.20;98851.03;5053549;28;20036;-81
2022/12/25 00:07:42;;;;;;;26.27;10.23;;;;;;;5.25;95.07;98847.22;5052178;28;20143;-81
2022/12/25 00:10:09;;;;;;;29.23;10.32;;;;;;;5.15;95.55;98840.78;5053107;28;20033;-80
2022/12/25 00:12:34;;;;;;;22.58;9.50;;;;;;;5.27;95.33;98845.16;5055976;28;20111;-81
2022/12/25 00:15:00;;;;;;;18.95;7.90;;;;;;;5.14;95.62;98861.13;5057119;28;20100;-81
2022/12/25 00:17:25;;;;;;;25.85;8.57;;;;;;;5.32;94.71;98855.09;5055654;28;20183;-80
2022/12/25 00:19:51;;;;;;;18.33;8.40;;;;;;;5.18;94.96;98862.31;5038477;28;20043;-80
2022/12/25 00:22:16;;;;;;;27.58;8.45;;;;;;;5.21;95.37;98864.53;5055350;28;20033;-81
2022/12/25 00:24:41;;;;;;;21.77;9.85;;;;;;;5.29;95.45;98871.41;5055737;28;20090;-80
2022/12/25 00:27:07;;;;;;;38.75;12.88;;;;;;;5.07;95.40;98863.00;5055366;28;20063;-80
2022/12/25 00:29:33;;;;;;;16.95;8.52;;;;;;;5.35;95.30;98867.91;5053635;28;20086;-81
2022/12/25 00:31:58;;;;;;;32.33;9.32;;;;;;;4.61;96.61;98866.91;5046697;28;20485;-81
2022/12/25 00:34:23;;;;;;;33.53;10.68;;;;;;;4.52;98.17;98863.69;5036897;28;20035;-82
2022/12/25 00:36:50;;;;;;;41.17;9.65;;;;;;;4.70;97.89;98874.38;5037214;28;20091;-80
2022/12/25 00:39:16;;;;;;;22.52;7.70;;;;;;;5.00;97.39;98859.56;5055408;28;20096;-80
2022/12/25 00:44:25;;;;;;;22.95;8.02;;;;;;;5.37;94.56;98870.34;5052116;28;20048;-82
2022/12/25 00:46:50;;;;;;;13.98;7.85;;;;;;;5.38;95.20;98883.34;5052194;28;20033;-81
2022/12/25 00:49:15;;;;;;;19.55;9.32;;;;;;;5.56;94.74;98891.38;5055156;28;20501;-81
2022/12/25 00:51:41;;;;;;;16.30;7.13;;;;;;;5.23;95.85;98877.56;5055992;28;20389;-82
2022/12/25 00:54:07;;;;;;;19.45;8.50;;;;;;;5.47;95.39;98894.47;5056079;28;20025;-81
2022/12/25 00:56:32;;;;;;;13.70;7.47;;;;;;;5.47;94.40;98900.59;5050236;28;20043;-80
2022/12/25 00:58:58;;;;;;;26.52;8.00;;;;;;;4.84;94.87;98891.00;5055960;28;20484;-80
2022/12/25 01:01:23;;;;;;;17.40;7.78;;;;;;;4.74;96.93;98891.44;5035516;28;20576;-80
2022/12/25 01:03:48;;;;;;;34.90;8.98;;;;;;;4.41;97.94;98891.53;5052511;28;20021;-80
2022/12/25 01:06:14;;;;;;;21.17;8.52;;;;;;;5.27;96.42;98894.63;5035687;28;20404;-81
2022/12/25 01:10:21;;;;;;;17.30;7.68;;;;;;;5.40;95.20;98907.75;5027598;28;20025;-80
2022/12/25 01:11:30;;;;;;;13.05;7.90;;;;;;;5.26;95.41;98922.13;5055177;28;20476;-80
2022/12/25 01:13:56;;;;;;;15.25;7.72;;;;;;;5.35;94.66;98904.97;5055169;28;20071;-81
2022/12/25 01:16:22;;;;;;;15.27;7.32;;;;;;;5.42;94.81;98920.81;5037302;28;20542;-80
2022/12/25 01:18:48;;;;;;;28.10;7.97;;;;;;;5.24;94.86;98909.06;5054969;28;20041;-80
2022/12/25 01:21:16;;;;;;;14.88;7.60;;;;;;;4.99;97.56;98917.97;5019220;28;20029;-80
2022/12/25 01:23:42;;;;;;;20.13;8.80;;;;;;;5.24;96.92;98924.16;5053441;28;20037;-80
2022/12/25 01:26:10;;;;;;;17.88;7.60;;;;;;;5.10;96.93;98912.84;5053072;28;20480;-82
2022/12/25 01:28:36;;;;;;;14.13;7.00;;;;;;;5.32;96.76;98931.84;5052741;28;20049;-81
2022/12/25 01:31:02;;;;;;;12.88;7.03;;;;;;;5.23;96.59;98927.81;5052688;28;20021;-82
2022/12/25 01:33:28;;;;;;;31.33;9.48;;;;;;;4.87;97.67;98923.09;5052915;28;20021;-80
2022/12/25 01:35:53;;;;;;;13.65;7.07;;;;;;;5.32;96.63;98918.63;5053732;28;20037;-81
2022/12/25 01:38:19;;;;;;;20.00;6.60;;;;;;;5.15;96.93;98915.66;5034120;28;20040;-80
2022/12/25 01:40:44;;;;;;;18.35;7.57;;;;;;;5.24;97.01;98918.88;5052721;28;20052;-81
2022/12/25 01:43:31;;;;;;;16.25;7.25;;;;;;;5.32;97.02;98919.44;5053396;28;20032;-80
2022/12/25 01:45:57;;;;;;;21.75;8.88;;;;;;;5.15;96.71;98918.31;5052192;28;20029;-81
2022/12/25 01:48:29;;;;;;;13.85;7.30;;;;;;;5.48;95.90;98917.28;5052021;28;20502;-81
2022/12/25 01:50:58;;;;;;;23.38;8.85;;;;;;;5.11;96.69;98922.38;5053850;28;20086;-81
2022/12/25 01:53:25;;;;;;;18.90;8.20;;;;;;;5.20;96.04;98909.72;5053235;28;20035;-81
2022/12/25 01:55:56;;;;;;;11.50;6.35;;;;;;;5.35;96.58;98922.66;5029782;28;20032;-81
2022/12/25 01:58:22;;;;;;;24.30;8.85;;;;;;;5.09;96.80;98918.31;5053918;28;20375;-81
2022/12/25 02:00:47;;;;;;;22.95;9.63;;;;;;;5.25;97.95;98910.72;5055438;28;20029;-81
2022/12/25 02:03:13;;;;;;;21.95;8.48;;;;;;;5.05;96.84;98912.66;5053250;28;20039;-80
2022/12/25 02:05:39;;;;;;;26.80;7.32;;;;;;;4.92;98.47;98901.31;5020913;28;20051;-80
2022/12/25 02:08:10;;;;;;;24.88;8.88;;;;;;;4.50;99.26;98902.69;5050340;28;20064;-80
2022/12/25 02:10:37;;;;;;;16.15;6.93;;;;;;;5.04;99.11;98907.59;5028375;28;20120;-81
2022/12/25 02:13:05;;;;;;;18.70;7.47;;;;;;;5.20;97.18;98917.66;5046767;28;20033;-80
2022/12/25 02:15:47;;;;;;;19.67;8.63;;;;;;;5.32;96.83;98922.06;5052367;28;20021;-80
2022/12/25 02:18:39;;;;;;;19.45;6.40;;;;;;;5.27;97.26;98913.13;5050667;28;20052;-81
2022/12/25 02:21:21;;;;;;;11.65;6.43;;;;;;;5.32;96.36;98926.56;5054947;28;20033;-82
2022/12/25 02:24:31;;;;;;;13.20;6.07;;;;;;;5.27;96.68;98921.06;5052646;28;20055;-81
2022/12/25 02:27:13;;;;;;;22.00;7.75;;;;;;;4.80;97.45;98916.22;5053969;28;20021;-81
2022/12/25 02:29:48;;;;;;;13.70;8.55;;;;;;;5.13;98.40;98909.75;5052950;28;20020;-83
2022/12/25 02:32:24;;;;;;;26.52;8.60;;;;;;;4.65;99.07;98908.56;5050022;28;20021;-82
2022/12/25 02:35:05;;;;;;;16.67;6.63;;;;;;;5.19;98.49;98910.75;5052408;28;20143;-82
2022/12/25 02:37:35;;;;;;;13.23;5.70;;;;;;;5.29;97.10;98903.97;5052887;28;20028;-81
2022/12/25 02:40:03;;;;;;;19.40;7.78;;;;;;;5.36;97.00;98922.44;5054368;28;20033;-81
2022/12/25 03:07:54;;;;;;;13.77;6.07;;;;;;;5.32;97.69;98921.25;5047995;28;20036;-81
2022/12/25 03:13:18;;;;;;;15.55;6.70;;;;;;;5.40;96.82;98913.06;5053123;28;20031;-80
2022/12/25 03:18:30;;;;;;;14.88;6.22;;;;;;;5.51;96.61;98899.13;5051869;28;20082;-79
2022/12/25 03:31:10;;;;;;;31.98;9.90;;;;;;;5.20;97.57;98917.66;5053165;28;20112;-81
2022/12/25 03:32:19;;;;;;;15.73;7.03;;;;;;;5.41;97.73;98919.97;5051565;28;20040;-81
2022/12/25 03:47:30;;;;;;;12.38;7.22;;;;;;;5.35;96.96;98904.97;5055685;28;20636;-81
2022/12/25 04:36:40;;;;;;;18.40;5.68;;;;;;;5.26;98.94;98883.22;5055303;28;20064;-83
2022/12/25 04:39:05;;;;;;;12.82;6.20;;;;;;;5.39;98.24;98886.81;5055569;28;20396;-83
2022/12/25 04:41:31;;;;;;;12.10;6.28;;;;;;;5.46;97.44;98877.78;5038237;28;20306;-82
2022/12/25 04:43:56;;;;;;;12.75;5.28;;;;;;;5.40;96.70;98870.72;5055412;28;20075;-82
2022/12/25 04:46:22;;;;;;;9.27;5.45;;;;;;;5.52;96.78;98871.66;5054214;28;20036;-81
2022/12/25 04:48:47;;;;;;;13.30;6.07;;;;;;;5.59;96.19;98869.75;5053777;28;20096;-81
2022/12/25 04:51:18;;;;;;;18.70;6.45;;;;;;;5.63;96.06;98854.25;5056379;28;20056;-82
2022/12/25 04:53:45;;;;;;;14.25;5.68;;;;;;;5.46;97.24;98872.50;5055601;28;20425;-82
2022/12/25 04:56:11;;;;;;;8.23;5.95;;;;;;;5.59;97.17;98871.59;5056142;28;20107;-81
2022/12/25 04:58:36;;;;;;;13.35;5.80;;;;;;;5.63;96.19;98865.66;5056431;28;20063;-81
2022/12/25 05:01:03;;;;;;;12.70;4.88;;;;;;;5.70;96.55;98869.03;5054305;28;20033;-81
2022/12/25 05:03:29;;;;;;;10.02;5.88;;;;;;;5.51;97.36;98848.84;5055042;28;20500;-81
2022/12/25 05:05:55;;;;;;;21.20;6.18;;;;;;;5.55;96.71;98836.78;5054612;28;20025;-81
2022/12/25 05:08:21;;;;;;;8.68;5.20;;;;;;;5.73;95.83;98841.31;5038162;28;20063;-81
2022/12/25 05:10:47;;;;;;;12.73;5.72;;;;;;;5.58;96.76;98839.00;5055170;28;20040;-81
2022/12/25 05:13:12;;;;;;;9.95;6.00;;;;;;;5.63;96.74;98822.47;5054813;28;20068;-82
2022/12/25 05:15:39;;;;;;;16.13;5.95;;;;;;;5.60;96.87;98825.56;5052516;28;20055;-82
2022/12/25 05:18:04;;;;;;;15.27;5.50;;;;;;;5.64;97.18;98832.84;5053615;28;20051;-83
2022/12/25 05:20:30;;;;;;;9.55;5.95;;;;;;;5.66;96.91;98844.03;5034232;28;20567;-82
2022/12/25 05:22:55;;;;;;;7.32;5.10;;;;;;;5.58;96.29;98849.59;5034066;28;20436;-82
2022/12/25 05:25:20;;;;;;;12.55;5.78;;;;;;;5.62;97.30;98848.16;5035359;28;20492;-82
2022/12/25 05:27:46;;;;;;;12.02;6.00;;;;;;;5.68;96.65;98857.06;5050369;28;20029;-81
2022/12/25 05:30:11;;;;;;;12.38;5.60;;;;;;;5.57;96.67;98855.91;5036618;28;20037;-81
2022/12/25 05:32:37;;;;;;;15.55;6.78;;;;;;;5.57;97.18;98855.91;5053915;28;20021;-81
2022/12/25 05:35:02;;;;;;;11.80;5.93;;;;;;;5.68;97.48;98859.72;5054183;28;20111;-81
2022/12/25 05:37:28;;;;;;;11.18;5.80;;;;;;;5.67;96.71;98866.84;5054214;28;20048;-82
2022/12/25 05:39:53;;;;;;;8.82;5.10;;;;;;;5.50;96.99;98865.78;5037257;28;20370;-81
2022/12/25 05:42:18;;;;;;;12.90;5.65;;;;;;;5.51;97.67;98867.38;5020745;28;20044;-80
2022/12/25 05:44:44;;;;;;;12.80;5.40;;;;;;;5.53;97.79;98869.78;5019529;28;20091;-81
2022/12/25 05:47:09;;;;;;;10.50;5.50;;;;;;;5.45;97.67;98862.13;5036814;28;20029;-81
2022/12/25 05:49:35;;;;;;;9.65;5.53;;;;;;;5.52;98.19;98870.84;5053505;28;20029;-81
2022/12/25 05:52:00;;;;;;;9.70;5.93;;;;;;;5.48;97.66;98856.41;5052873;28;20050;-82
2022/12/25 05:54:25;;;;;;;10.13;5.70;;;;;;;5.52;98.11;98865.53;5052142;28;20028;-82
2022/12/25 05:56:51;;;;;;;17.67;6.63;;;;;;;5.47;97.64;98860.06;5052083;28;20071;-83
2022/12/25 05:59:16;;;;;;;9.23;5.35;;;;;;;5.46;98.44;98866.41;5053048;28;20044;-81
2022/12/25 06:01:41;;;;;;;12.65;6.35;;;;;;;5.44;97.88;98855.22;5035319;28;20211;-82
2022/12/25 06:04:07;;;;;;;12.05;6.22;;;;;;;5.59;98.45;98863.66;5035824;28;20111;-82
2022/12/25 06:06:32;;;;;;;18.52;6.68;;;;;;;5.46;98.80;98866.41;5052164;28;20655;-82
2022/12/25 06:08:57;;;;;;;17.77;6.38;;;;;;;5.42;98.07;98852.78;5052529;28;20029;-81
2022/12/25 06:11:23;;;;;;;14.00;6.38;;;;;;;5.51;98.29;98861.25;5052064;28;20110;-81
2022/12/25 06:13:52;;;;;;;10.65;7.25;;;;;;;5.41;99.00;98861.75;5029405;28;20389;-81
2022/12/25 06:16:18;;;;;;;8.18;6.72;;;;;;;5.39;99.08;98863.81;5050514;28;20082;-81
2022/12/25 06:18:47;;;;;;;13.82;7.53;;;;;;;5.51;98.74;98862.06;5034727;28;20036;-81
2022/12/25 06:21:14;;;;;;;16.65;7.32;;;;;;;5.55;98.70;98841.28;5051885;28;20032;-81
2022/12/25 06:23:40;;;;;;;13.45;7.32;;;;;;;5.72;97.61;98864.34;5051769;28;20021;-82
2022/12/25 06:26:08;;;;;;;13.02;7.57;;;;;;;5.67;97.67;98866.84;5051698;28;20025;-81
2022/12/25 06:28:34;;;;;;;15.20;7.65;;;;;;;5.64;97.36;98853.22;5050152;28;20549;-82
2022/12/25 06:31:06;;;;;;;18.83;7.28;;;;;;;5.72;97.03;98852.97;5052244;28;20029;-82
2022/12/25 06:33:31;;;;;;;16.13;8.38;;;;;;;5.81;97.09;98852.44;5034360;28;20025;-82
2022/12/25 06:35:57;;;;;;;24.55;10.52;;;;;;;5.66;97.34;98835.28;5052248;28;20139;-82
2022/12/25 06:38:22;;;;;;;21.80;8.45;;;;;;;5.82;97.68;98840.03;5052738;28;20029;-82
2022/12/25 06:40:48;;;;;;;21.70;8.73;;;;;;;5.86;96.60;98839.41;5036086;28;20033;-82
2022/12/25 06:43:13;;;;;;;15.60;7.88;;;;;;;5.86;96.50;98826.16;5018833;28;20048;-83
2022/12/25 06:45:38;;;;;;;10.65;7.25;;;;;;;5.81;96.63;98815.38;5052634;28;20032;-82
2022/12/25 06:48:04;;;;;;;15.35;7.18;;;;;;;5.79;96.23;98825.38;5052925;28;20031;-83
2022/12/25 06:50:29;;;;;;;15.27;6.97;;;;;;;5.75;97.12;98821.53;5053084;28;20105;-82
2022/12/25 06:52:55;;;;;;;13.98;8.45;;;;;;;5.61;97.82;98825.34;5052476;28;20496;-83
2022/12/25 06:55:21;;;;;;;14.93;7.55;;;;;;;5.59;98.41;98830.03;5053218;28;20503;-82
2022/12/25 06:57:46;;;;;;;16.40;8.40;;;;;;;5.58;98.10;98839.00;5035185;28;20033;-82
2022/12/25 07:00:12;;;;;;;20.95;7.65;;;;;;;5.50;98.83;98826.06;5052408;28;20032;-82
2022/12/25 07:02:39;;;;;;;18.83;8.45;;;;;;;5.44;98.85;98818.97;5052831;28;20048;-83
2022/12/25 07:05:05;;;;;;;18.50;8.00;;;;;;;5.51;98.47;98825.03;5036572;28;20086;-82
2022/12/25 07:07:30;;;;;;;18.25;8.80;;;;;;;5.47;98.48;98823.03;5035738;28;20404;-82
2022/12/25 07:09:55;;;;;;;15.77;8.38;;;;;;;5.41;98.58;98819.41;5009567;28;20041;-82
2022/12/25 07:12:23;;;;;;;16.35;9.35;;;;;;;5.50;98.45;98823.41;5030971;28;20217;-81
2022/12/25 07:14:49;;;;;;;19.13;9.38;;;;;;;5.54;98.39;98829.06;5034345;28;20108;-82
2022/12/25 07:17:19;;;;;;;20.15;9.80;;;;;;;5.49;97.35;98820.97;5033660;28;20057;-81
2022/12/25 07:19:48;;;;;;;15.55;9.25;;;;;;;5.43;97.93;98835.06;5048793;28;20079;-81
2022/12/25 07:22:14;;;;;;;18.05;9.68;;;;;;;5.55;97.82;98820.91;5049095;28;20033;-82
2022/12/25 07:24:39;;;;;;;15.40;9.23;;;;;;;5.47;97.75;98839.72;5017664;28;20025;-82
2022/12/25 07:27:05;;;;;;;20.50;10.13;;;;;;;5.52;97.82;98841.72;5032521;28;20086;-82
2022/12/25 07:29:30;;;;;;;13.68;9.13;;;;;;;5.54;97.92;98845.78;5051109;28;20248;-82
2022/12/25 07:31:55;;;;;;;15.35;9.65;;;;;;;5.50;97.62;98839.28;5033246;28;20559;-82
2022/12/25 07:34:22;;;;;;;19.17;9.20;;;;;;;5.44;97.77;98834.06;5032900;28;20040;-81
2022/12/25 07:36:48;;;;;;;18.88;11.23;;;;;;;5.51;97.58;98832.97;5050477;28;20029;-82
2022/12/25 07:39:13;;;;;;;16.63;9.02;;;;;;;5.53;97.59;98827.44;5049689;28;20040;-81
2022/12/25 07:41:39;;;;;;;18.20;9.80;;;;;;;5.44;98.13;98824.25;5049501;28;20142;-81
2022/12/25 07:44:04;;;;;;;18.02;10.07;;;;;;;5.33;98.20;98815.19;5050861;28;20037;-81
2022/12/25 07:46:30;;;;;;;22.13;11.15;;;;;;;5.35;98.80;98812.34;5032634;28;20032;-82
2022/12/25 07:48:55;;;;;;;18.40;10.20;;;;;;;5.42;98.56;98807.00;5049217;28;20039;-82
2022/12/25 07:51:20;;;;;;;17.35;10.77;;;;;;;5.46;98.21;98811.63;5033026;28;20041;-81
2022/12/25 07:53:46;;;;;;;17.67;10.95;;;;;;;5.45;98.47;98799.41;5048493;28;20370;-81
2022/12/25 07:56:17;;;;;;;23.42;11.68;;;;;;;5.37;97.68;98785.66;5049010;28;20527;-82
2022/12/25 07:58:43;;;;;;;18.38;10.32;;;;;;;5.61;97.25;98788.28;5049277;28;20037;-82
2022/12/25 08:01:15;;;;;;;21.50;10.95;;;;;;;5.64;96.90;98773.78;5050495;28;20392;-82
2022/12/25 08:03:40;;;;;;;17.35;10.27;;;;;;;5.70;96.60;98776.38;5033092;28;20391;-82
2022/12/25 08:06:08;;;;;;;17.98;11.27;;;;;;;5.69;96.02;98779.25;5050809;28;20025;-82
2022/12/25 08:08:35;;;;;;;17.60;10.52;;;;;;;5.56;97.05;98790.78;5046453;28;20033;-82
2022/12/25 08:11:00;;;;;;;17.35;10.48;;;;;;;5.48;97.65;98792.88;5050358;28;20028;-82
2022/12/25 08:13:28;;;;;;;17.95;10.43;;;;;;;5.44;98.22;98791.72;5051005;28;20370;-82
2022/12/25 08:16:03;;;;;;;14.27;10.50;;;;;;;5.37;98.40;98794.41;5033631;28;20392;-82
2022/12/25 08:18:29;;;;;;;16.83;10.70;;;;;;;5.40;98.20;98793.16;5051359;28;20384;-82
2022/12/25 08:20:55;;;;;;;16.88;10.63;;;;;;;5.43;98.17;98784.78;5053432;28;20032;-82
2022/12/25 08:23:20;;;;;;;20.48;10.23;;;;;;;5.45;98.31;98790.66;5050990;28;20049;-83
2022/12/25 08:25:46;;;;;;;19.85;11.05;;;;;;;5.42;98.25;98777.88;5053363;28;20496;-82
2022/12/25 08:28:11;;;;;;;21.25;10.98;;;;;;;5.33;98.61;98769.38;5052425;28;20052;-82
2022/12/25 08:30:38;;;;;;;20.65;10.68;;;;;;;5.30;98.58;98785.72;5053188;28;20115;-82
2022/12/25 08:33:03;;;;;;;16.13;9.80;;;;;;;5.23;98.58;98795.53;5056958;28;20032;-83
2022/12/25 08:35:28;;;;;;;19.45;10.95;;;;;;;5.31;99.00;98793.41;5055773;28;20020;-82
2022/12/25 08:37:54;;;;;;;16.27;10.45;;;;;;;5.31;98.88;98798.72;5055745;28;20052;-82
2022/12/25 08:40:19;;;;;;;16.10;10.02;;;;;;;5.24;98.74;98778.66;5056288;28;20040;-82
2022/12/25 08:42:45;;;;;;;16.10;10.02;;;;;;;5.33;98.25;98785.25;5055300;28;20370;-82
2022/12/25 08:45:10;;;;;;;12.77;10.07;;;;;;;5.32;98.69;98791.59;5055681;28;20099;-82
2022/12/25 08:47:35;;;;;;;19.88;9.93;;;;;;;5.41;97.98;98786.84;5055245;28;20029;-82
2022/12/25 08:50:01;;;;;;;17.27;10.82;;;;;;;5.36;98.39;98789.31;5054936;28;20041;-82
2022/12/25 08:52:27;;;;;;;16.00;9.43;;;;;;;5.36;98.53;98792.78;5053671;28;20036;-82
2022/12/25 08:54:53;;;;;;;22.58;9.40;;;;;;;5.35;98.24;98790.34;5056074;28;20029;-82
2022/12/25 08:57:18;;;;;;;17.85;9.63;;;;;;;5.37;98.45;98789.13;5055721;28;20065;-82
2022/12/25 08:59:43;;;;;;;19.23;10.38;;;;;;;5.36;98.36;98778.72;5052113;28;20556;-82
2022/12/25 09:02:11;;;;;;;13.10;9.50;;;;;;;5.46;98.20;98769.25;5054535;28;20109;-82
2022/12/25 09:04:36;;;;;;;20.67;11.52;;;;;;;5.50;98.92;98769.66;5053910;28;20098;-83
2022/12/25 09:07:01;;;;;;;18.38;10.75;;;;;;;5.63;97.76;98782.78;5033640;28;20029;-82
2022/12/25 09:09:27;;;;;;;20.77;11.45;;;;;;;5.63;98.75;98777.47;5051708;28;20029;-83
2022/12/25 09:11:53;;;;;;;21.48;12.02;;;;;;;5.53;99.86;98764.72;5054192;28;20033;-83
2022/12/25 09:14:19;;;;;;;25.20;11.48;;;;;;;5.52;100.00;98768.41;5054548;28;20124;-81
2022/12/25 09:16:44;;;;;;;18.23;11.27;;;;;;;5.62;99.37;98768.72;5020785;28;20732;-81
2022/12/25 09:19:09;;;;;;;16.42;10.75;;;;;;;5.77;98.30;98765.72;5051674;28;20035;-82
2022/12/25 09:21:35;;;;;;;17.33;11.25;;;;;;;5.77;97.99;98763.88;5055534;28;20056;-82
2022/12/25 09:24:02;;;;;;;19.33;10.98;;;;;;;5.83;97.22;98764.84;5037829;28;20056;-82
2022/12/25 09:26:28;;;;;;;16.65;10.27;;;;;;;5.75;97.80;98760.66;5052151;28;20546;-81
2022/12/25 09:28:53;;;;;;;21.40;9.93;;;;;;;5.95;96.84;98774.53;5036946;28;20033;-81
2022/12/25 09:31:20;;;;;;;15.55;9.95;;;;;;;5.88;97.51;98765.84;5037690;28;20084;-82
2022/12/25 09:33:46;;;;;;;23.77;8.43;;;;;;;5.84;98.51;98756.72;5055767;28;20017;-82
2022/12/25 09:36:12;;;;;;;13.93;8.98;;;;;;;5.82;98.78;98755.28;5054866;28;20037;-83
2022/12/25 09:38:37;;;;;;;14.43;8.65;;;;;;;5.90;98.74;98747.06;5053946;28;20028;-82
2022/12/25 09:41:15;;;;;;;14.63;8.35;;;;;;;5.99;98.70;98759.00;5046895;28;20437;-83
2022/12/25 09:43:57;;;;;;;13.55;7.88;;;;;;;6.01;100.00;98754.28;5049672;28;20043;-83
2022/12/25 09:46:26;;;;;;;19.48;9.48;;;;;;;6.03;100.00;98768.91;5053274;28;20057;-82
2022/12/25 09:49:05;;;;;;;15.50;8.48;;;;;;;5.91;100.00;98746.88;5053524;28;20433;-83
2022/12/25 09:51:34;;;;;;;14.23;7.20;;;;;;;5.98;100.00;98731.69;5051655;28;20556;-82
2022/12/25 09:54:05;;;;;;;20.05;9.90;;;;;;;6.12;99.64;98718.28;5054170;28;20127;-82
2022/12/25 09:56:32;;;;;;;24.35;9.93;;;;;;;6.08;100.00;98736.47;5051286;28;20421;-82
2022/12/25 09:58:57;;;;;;;13.88;7.90;;;;;;;6.14;100.00;98729.50;5052985;28;20040;-82
2022/12/25 10:01:29;;;;;;;17.70;8.90;;;;;;;6.23;99.75;98733.44;5035708;28;20131;-82
2022/12/25 10:04:03;;;;;;;16.58;8.80;;;;;;;6.22;100.00;98727.34;5054571;28;20025;-81
2022/12/25 10:07:06;;;;;;;14.65;8.98;;;;;;;6.25;99.69;98734.81;5053510;28;20029;-81
2022/12/25 10:09:57;;;;;;;23.88;10.57;;;;;;;6.29;98.87;98716.66;5028817;28;20131;-82
2022/12/25 10:12:29;;;;;;;17.33;8.32;;;;;;;6.17;100.00;98716.59;5051356;28;20025;-82
2022/12/25 10:15:17;;;;;;;21.25;9.60;;;;;;;6.22;100.00;98735.28;5050646;28;20070;-82
2022/12/25 10:17:42;;;;;;;12.65;8.13;;;;;;;6.28;99.62;98725.63;5047858;28;20112;-82
2022/12/25 10:20:34;;;;;;;25.05;10.18;;;;;;;6.23;100.00;98713.03;5051405;28;20071;-83
2022/12/25 10:23:02;;;;;;;15.55;9.73;;;;;;;6.19;100.00;98684.56;5053449;28;20025;-81
2022/12/25 10:25:29;;;;;;;21.10;10.15;;;;;;;6.20;99.92;98699.44;5051396;28;20473;-81
2022/12/25 10:28:00;;;;;;;20.15;9.95;;;;;;;6.29;99.52;98701.53;5053752;28;20487;-83
2022/12/25 10:30:27;;;;;;;22.27;10.77;;;;;;;6.31;100.00;98702.13;5051598;28;20047;-82
2022/12/25 10:32:56;;;;;;;14.75;9.07;;;;;;;6.50;98.78;98697.59;5036350;28;20029;-83
2022/12/25 10:35:24;;;;;;;15.73;9.35;;;;;;;6.32;99.51;98706.41;5045619;28;20037;-82
2022/12/25 10:37:58;;;;;;;22.50;11.32;;;;;;;6.37;100.00;98697.78;5053692;28;20482;-82
2022/12/25 10:40:33;;;;;;;22.55;10.07;;;;;;;6.27;100.00;98685.06;5053146;28;20025;-82
2022/12/25 10:43:11;;;;;;;23.42;12.05;;;;;;;6.17;100.00;98673.38;5051728;28;20128;-82
2022/12/25 10:45:47;;;;;;;18.35;10.60;;;;;;;6.29;100.00;98668.94;5052975;28;20472;-83
2022/12/25 10:48:32;;;;;;;18.40;10.98;;;;;;;6.31;100.00;98677.47;5053089;28;20369;-83
2022/12/25 10:50:57;;;;;;;21.55;10.93;;;;;;;6.26;100.00;98666.75;5051200;28;20033;-82
2022/12/25 10:53:25;;;;;;;21.65;10.20;;;;;;;6.19;100.00;98660.72;5049362;28;20041;-83
2022/12/25 10:56:01;;;;;;;18.60;10.88;;;;;;;6.40;100.00;98676.91;5053029;28;20028;-83
2022/12/25 10:58:27;;;;;;;19.90;10.90;;;;;;;6.34;100.00;98675.19;5053627;28;20417;-83
2022/12/25 11:01:02;;;;;;;24.17;11.40;;;;;;;6.19;100.00;98666.81;5052641;28;20063;-82
2022/12/25 11:03:33;;;;;;;19.50;11.48;;;;;;;6.35;100.00;98673.34;5052209;28;20036;-83
2022/12/25 11:05:59;;;;;;;25.92;12.52;;;;;;;6.36;100.00;98672.28;5052432;28;20086;-82
2022/12/25 11:08:27;;;;;;;29.38;14.73;;;;;;;6.48;100.00;98673.97;5053450;28;20092;-82
2022/12/25 11:10:58;;;;;;;31.48;15.60;;;;;;;6.38;100.00;98665.75;5052471;28;20078;-83
2022/12/25 11:13:26;;;;;;;24.02;12.50;;;;;;;6.25;100.00;98639.41;5053976;28;20036;-83
2022/12/25 11:16:24;;;;;;;19.05;11.68;;;;;;;6.31;100.00;98646.47;5052397;28;20128;-83
2022/12/25 11:18:53;;;;;;;18.85;10.60;;;;;;;6.35;100.00;98657.44;5052289;28;20048;-81
2022/12/25 11:21:18;;;;;;;21.75;12.57;;;;;;;6.37;100.00;98644.75;5048528;28;20428;-83
2022/12/25 11:23:47;;;;;;;20.52;12.40;;;;;;;6.28;100.00;98640.81;5051982;28;20051;-81
2022/12/25 11:26:14;;;;;;;20.52;12.20;;;;;;;6.34;100.00;98632.78;5050246;28;20040;-83
2022/12/25 11:28:41;;;;;;;18.70;10.68;;;;;;;6.42;100.00;98643.03;5050367;28;20412;-83
2022/12/25 11:31:13;;;;;;;25.60;13.30;;;;;;;6.46;100.00;98646.88;5035439;28;20432;-83
2022/12/25 11:33:58;;;;;;;23.15;12.40;;;;;;;6.46;100.00;98654.03;5035755;28;20120;-83
2022/12/25 11:36:37;;;;;;;23.30;11.35;;;;;;;6.41;100.00;98652.03;5053576;28;20027;-82
2022/12/25 11:39:26;;;;;;;24.48;12.18;;;;;;;6.36;100.00;98637.84;5053348;28;20441;-83
2022/12/25 11:41:58;;;;;;;21.92;13.43;;;;;;;6.42;100.00;98642.25;5044951;28;20087;-83
2022/12/25 11:44:37;;;;;;;22.63;11.55;;;;;;;6.55;100.00;98642.84;5053047;28;20057;-83
2022/12/25 11:47:43;;;;;;;18.83;11.73;;;;;;;6.64;98.98;98646.00;5053168;28;20064;-82
2022/12/25 11:50:57;;;;;;;24.58;16.02;;;;;;;6.55;99.53;98644.72;5043730;28;20428;-82
2022/12/25 11:53:54;;;;;;;20.20;12.95;;;;;;;6.49;100.00;98635.81;5049665;28;20552;-82
2022/12/25 11:56:27;;;;;;;24.05;13.75;;;;;;;6.38;100.00;98625.16;5048171;28;20096;-82
2022/12/25 11:58:57;;;;;;;20.33;12.05;;;;;;;6.34;100.00;98618.69;5053039;28;20021;-82
2022/12/25 12:01:35;;;;;;;15.60;11.10;;;;;;;6.56;100.00;98627.75;5053336;28;20033;-83
2022/12/25 12:04:06;;;;;;;25.30;13.25;;;;;;;6.65;99.84;98631.69;5050905;28;20033;-82
2022/12/25 12:07:16;;;;;;;18.58;11.95;;;;;;;6.54;100.00;98630.63;5047080;28;20028;-82
2022/12/25 12:09:59;;;;;;;30.80;15.13;;;;;;;6.55;100.00;98628.81;5022342;28;20040;-82
2022/12/25 12:12:54;;;;;;;26.90;14.32;;;;;;;6.51;100.00;98625.00;5055526;28;20033;-82
2022/12/25 12:15:44;;;;;;;20.83;12.32;;;;;;;6.52;100.00;98616.81;5054700;28;20025;-82
2022/12/25 12:18:21;;;;;;;24.73;11.63;;;;;;;6.51;100.00;98609.09;5053468;28;20021;-82
2022/12/25 12:21:26;;;;;;;25.38;13.48;;;;;;;6.52;100.00;98600.91;5049285;28;20481;-82
2022/12/25 12:24:04;;;;;;;24.73;14.45;;;;;;;6.52;100.00;98586.81;4996285;28;20586;-83
2022/12/25 12:26:36;;;;;;;24.00;12.73;;;;;;;6.63;99.88;98580.72;5027942;28;20479;-83
2022/12/25 12:29:05;;;;;;;19.77;11.75;;;;;;;6.60;99.26;98584.63;5033675;28;20043;-83
2022/12/25 12:31:46;;;;;;;20.15;12.65;;;;;;;6.75;98.61;98578.88;5045895;28;20055;-83
2022/12/25 12:34:24;;;;;;;23.00;12.98;;;;;;;6.57;100.00;98555.13;5054383;28;20053;-83
2022/12/25 12:36:55;;;;;;;19.15;12.90;;;;;;;6.71;98.71;98572.41;5054327;28;20029;-83
2022/12/25 12:39:25;;;;;;;19.35;10.98;;;;;;;6.70;99.37;98565.53;5054188;28;20027;-83
2022/12/25 12:41:51;;;;;;;17.42;10.75;;;;;;;6.69;99.54;98550.63;5054165;28;20041;-83
2022/12/25 12:44:19;;;;;;;18.13;10.65;;;;;;;6.51;100.00;98540.94;5036212;28;20392;-82
2022/12/25 12:46:53;;;;;;;22.13;11.10;;;;;;;6.53;100.00;98540.72;5052715;28;20052;-81
2022/12/25 12:49:24;;;;;;;18.30;11.65;;;;;;;6.53;100.00;98538.88;5037506;28;20021;-83
2022/12/25 12:52:02;;;;;;;15.68;11.02;;;;;;;6.61;100.00;98535.06;5054768;28;20074;-83
2022/12/25 12:54:28;;;;;;;18.38;10.68;;;;;;;6.60;99.98;98528.97;5056276;28;20032;-83
2022/12/25 12:57:01;;;;;;;19.98;12.07;;;;;;;6.64;100.00;98537.28;5054439;28;20033;-82
2022/12/25 12:59:38;;;;;;;19.05;10.88;;;;;;;6.64;100.00;98534.63;5053214;28;20388;-82
2022/12/25 13:02:22;;;;;;;16.98;10.75;;;;;;;6.68;99.73;98535.78;5055095;28;20028;-82
2022/12/25 13:05:26;;;;;;;17.98;12.27;;;;;;;6.54;100.00;98529.88;5049010;28;20022;-83
2022/12/25 13:08:17;;;;;;;19.45;10.70;;;;;;;6.58;100.00;98519.63;5053910;28;20045;-82
2022/12/25 13:10:47;;;;;;;19.20;11.25;;;;;;;6.60;100.00;98518.34;5051703;28;20059;-82
2022/12/25 13:13:19;;;;;;;14.82;10.18;;;;;;;6.60;100.00;98523.66;5052400;28;20025;-82
2022/12/25 13:15:47;;;;;;;17.38;10.75;;;;;;;6.42;100.00;98522.97;5036605;28;20116;-81
2022/12/25 13:18:13;;;;;;;22.75;11.45;;;;;;;6.36;100.00;98511.44;5054524;28;20044;-82
2022/12/25 13:21:02;;;;;;;21.35;12.43;;;;;;;6.52;100.00;98515.25;5055963;28;20025;-83
2022/12/25 13:23:28;;;;;;;17.52;11.07;;;;;;;6.53;100.00;98503.63;5054155;28;20101;-82